Barnes Corners, New York
Current Conditions -  °F | °C
As of 9:58 AM on Friday 31 Oct 2014 (Local Time) from KGTB Reporting Station
Overcast Overcast  
Wind Chill: 38°   Ceiling: 5500
Heat Index: 38°   Visibility: 10mi
Dew Point: 37°   Wind: 2mph
Humidity: 95%   Direction: 110°ESE
Pressure: 30.02"   Gusts: NA
Location:  43.8415°N, 75.7057°W
Report Text: KGTB 311358Z AUTO 11002KT 10SM OVC055 03/03 A3002 RMK AO2 SLP172 T00330025
Loading
Personal Weather Stations






























Interactive Weather Map
Tropical Storm Tracking
New forecast layout! Learn more

10-Day Weather Forecast

Advertisements
Track Severe Weather on mobile